createdAt,value
2022-11-25T00:01:24.898Z,4.97
2022-11-25T00:03:54.290Z,6.18
2022-11-25T00:06:23.613Z,5.22
2022-11-25T00:09:01.709Z,4.40
2022-11-25T00:11:28.545Z,4.72
2022-11-25T00:13:57.227Z,4.30
2022-11-25T00:16:26.493Z,3.78
2022-11-25T00:18:55.806Z,4.00
2022-11-25T00:21:25.731Z,3.15
2022-11-25T00:24:00.820Z,2.80
2022-11-25T00:26:29.572Z,4.13
2022-11-25T00:28:59.766Z,3.50
2022-11-25T00:31:29.064Z,3.17
2022-11-25T00:33:56.639Z,2.90
2022-11-25T00:36:26.287Z,4.15
2022-11-25T00:39:14.660Z,3.10
2022-11-25T00:42:00.482Z,4.18
2022-11-25T00:44:37.502Z,3.65
2022-11-25T00:47:12.170Z,4.05
2022-11-25T00:49:41.693Z,4.32
2022-11-25T00:52:10.462Z,4.13
2022-11-25T00:54:37.479Z,3.45
2022-11-25T00:57:04.566Z,4.55
2022-11-25T00:59:31.490Z,4.35
2022-11-25T01:01:58.491Z,4.25
2022-11-25T01:04:25.637Z,4.45
2022-11-25T01:06:54.053Z,4.03
2022-11-25T01:09:20.959Z,4.20
2022-11-25T01:11:50.844Z,4.25
2022-11-25T01:14:18.906Z,3.72
2022-11-25T01:16:45.941Z,3.50
2022-11-25T01:19:13.094Z,4.18
2022-11-25T01:21:40.543Z,4.05
2022-11-25T01:24:08.038Z,3.63
2022-11-25T01:26:36.483Z,4.28
2022-11-25T01:29:06.497Z,3.95
2022-11-25T01:31:35.974Z,4.45
2022-11-25T01:34:07.047Z,4.50
2022-11-25T01:36:34.274Z,5.60
2022-11-25T01:39:01.380Z,4.35
2022-11-25T01:41:31.295Z,4.10
2022-11-25T01:44:19.123Z,3.63
2022-11-25T01:47:16.090Z,3.67
2022-11-25T01:49:45.719Z,4.18
2022-11-25T01:52:21.688Z,4.07
2022-11-25T01:55:01.035Z,3.72
2022-11-25T01:57:48.585Z,4.78
2022-11-25T02:00:16.308Z,3.15
2022-11-25T02:02:43.524Z,3.55
2022-11-25T02:05:13.454Z,3.10
2022-11-25T02:07:44.150Z,3.63
2022-11-25T02:10:14.860Z,3.67
2022-11-25T02:12:43.595Z,3.75
2022-11-25T02:15:10.943Z,4.03
2022-11-25T02:17:37.816Z,3.63
2022-11-25T02:20:10.989Z,4.60
2022-11-25T02:23:15.013Z,7.70
2022-11-25T02:25:43.493Z,5.28
2022-11-25T02:28:23.906Z,3.30
2022-11-25T02:30:51.271Z,3.63
2022-11-25T02:33:18.327Z,4.63
2022-11-25T02:35:49.896Z,4.13
2022-11-25T02:38:22.663Z,2.92
2022-11-25T02:43:17.962Z,3.22
2022-11-25T02:46:02.304Z,2.45
2022-11-25T02:51:27.437Z,2.17
2022-11-25T02:53:54.917Z,2.88
2022-11-25T02:56:24.532Z,3.33
2022-11-25T02:58:51.393Z,3.15
2022-11-25T03:01:18.585Z,2.78
2022-11-25T03:03:45.536Z,3.45
2022-11-25T03:06:12.466Z,3.15
2022-11-25T03:08:39.665Z,2.80
2022-11-25T03:11:06.714Z,2.85
2022-11-25T03:13:33.908Z,3.15
2022-11-25T03:16:00.715Z,3.05
2022-11-25T03:18:27.849Z,3.10
2022-11-25T03:20:55.789Z,2.83
2022-11-25T03:23:22.798Z,3.10
2022-11-25T03:25:50.024Z,2.83
2022-11-25T03:28:16.853Z,3.13
2022-11-25T03:30:44.110Z,3.10
2022-11-25T03:33:11.018Z,2.60
2022-11-25T03:35:37.844Z,3.20
2022-11-25T03:38:05.004Z,2.97
2022-11-25T03:40:31.804Z,4.25
2022-11-25T03:42:58.591Z,3.28
2022-11-25T03:45:25.436Z,5.00
2022-11-25T03:47:52.205Z,4.40
2022-11-25T03:50:19.159Z,3.65
2022-11-25T03:52:45.988Z,3.28
2022-11-25T03:55:13.244Z,2.78
2022-11-25T03:57:40.824Z,2.72
2022-11-25T04:00:09.510Z,3.40
2022-11-25T04:02:36.390Z,2.75
2022-11-25T04:05:05.491Z,2.78
2022-11-25T04:07:32.575Z,3.03
2022-11-25T04:09:59.479Z,2.80
2022-11-25T04:12:44.787Z,3.17
2022-11-25T04:15:11.767Z,2.70
2022-11-25T04:17:38.850Z,3.22
2022-11-25T04:20:06.437Z,2.88
2022-11-25T04:22:33.566Z,2.63
2022-11-25T04:25:00.407Z,2.63
2022-11-25T04:27:27.277Z,2.95
2022-11-25T04:29:54.080Z,2.90
2022-11-25T04:32:21.013Z,3.25
2022-11-25T04:34:47.848Z,3.60
2022-11-25T04:37:14.861Z,3.08
2022-11-25T04:39:41.697Z,2.63
2022-11-25T04:42:27.135Z,4.40
2022-11-25T04:45:20.937Z,4.03
2022-11-25T04:47:41.525Z,2.85
2022-11-25T04:50:13.270Z,2.50
2022-11-25T04:52:40.062Z,2.50
2022-11-25T04:55:07.295Z,3.10
2022-11-25T04:57:34.116Z,3.13
2022-11-25T05:00:00.904Z,2.97
2022-11-25T05:02:28.982Z,2.83
2022-11-25T05:04:57.297Z,3.28
2022-11-25T05:07:27.717Z,2.78
2022-11-25T05:09:54.756Z,3.13
2022-11-25T05:12:25.096Z,3.13
2022-11-25T05:14:51.905Z,2.92
2022-11-25T05:17:21.879Z,2.70
2022-11-25T05:19:50.162Z,2.45
2022-11-25T05:22:20.720Z,3.05
2022-11-25T05:24:48.033Z,2.72
2022-11-25T05:27:16.130Z,3.35
2022-11-25T05:29:43.441Z,3.97
2022-11-25T05:32:11.045Z,3.53
2022-11-25T05:34:41.824Z,4.10
2022-11-25T05:37:10.059Z,3.00
2022-11-25T05:39:36.965Z,3.50
2022-11-25T05:42:03.921Z,3.05
2022-11-25T05:44:30.888Z,3.22
2022-11-25T05:46:57.776Z,3.35
2022-11-25T05:49:24.687Z,3.72
2022-11-25T05:51:51.472Z,2.13
2022-11-25T05:54:18.460Z,2.28
2022-11-25T05:56:45.217Z,2.40
2022-11-25T05:59:12.021Z,2.55
2022-11-25T06:01:38.764Z,2.78
2022-11-25T06:04:05.847Z,2.80
2022-11-25T06:06:33.145Z,2.38
2022-11-25T06:09:00.394Z,2.97
2022-11-25T06:11:27.269Z,2.67
2022-11-25T06:13:57.599Z,2.83
2022-11-25T06:16:24.749Z,2.88
2022-11-25T06:18:51.702Z,2.40
2022-11-25T06:21:18.796Z,2.33
2022-11-25T06:23:46.237Z,1.98
2022-11-25T06:26:21.578Z,2.65
2022-11-25T06:28:50.482Z,2.33
2022-11-25T06:31:20.297Z,2.30
2022-11-25T06:33:48.866Z,2.30
2022-11-25T06:36:19.487Z,2.03
2022-11-25T06:38:55.453Z,1.90
2022-11-25T06:41:23.085Z,2.33
2022-11-25T06:43:50.209Z,1.70
2022-11-25T06:46:24.609Z,1.88
2022-11-25T06:48:53.577Z,2.47
2022-11-25T06:51:20.446Z,1.80
2022-11-25T06:53:47.984Z,2.50
2022-11-25T06:56:16.158Z,1.55
2022-11-25T06:58:44.446Z,2.67
2022-11-25T07:01:21.814Z,2.90
2022-11-25T07:03:52.253Z,3.17
2022-11-25T07:06:20.678Z,3.70
2022-11-25T07:08:48.641Z,4.50
2022-11-25T07:11:26.669Z,4.68
2022-11-25T07:14:02.422Z,5.00
2022-11-25T07:16:29.712Z,3.83
2022-11-25T07:18:56.726Z,3.67
2022-11-25T07:21:25.068Z,3.63
2022-11-25T07:23:52.956Z,3.10
2022-11-25T07:26:25.862Z,2.65
2022-11-25T07:28:53.951Z,2.42
2022-11-25T07:31:27.226Z,2.15
2022-11-25T07:33:57.704Z,1.90
2022-11-25T07:36:25.296Z,1.90
2022-11-25T07:38:52.515Z,1.92
2022-11-25T07:41:23.054Z,2.22
2022-11-25T07:43:52.560Z,1.67
2022-11-25T07:46:28.133Z,2.10
2022-11-25T07:48:58.477Z,2.47
2022-11-25T07:51:38.857Z,1.63
2022-11-25T07:54:07.883Z,1.70
2022-11-25T07:56:39.899Z,1.92
2022-11-25T07:59:08.756Z,3.22
2022-11-25T08:01:35.707Z,2.05
2022-11-25T08:04:02.719Z,2.20
2022-11-25T08:06:29.879Z,2.28
2022-11-25T08:08:58.408Z,2.20
2022-11-25T08:11:30.405Z,2.28
2022-11-25T08:13:58.386Z,2.05
2022-11-25T08:16:29.696Z,2.75
2022-11-25T08:18:57.555Z,1.70
2022-11-25T08:21:24.818Z,1.85
2022-11-25T08:23:52.681Z,3.03
2022-11-25T08:26:47.194Z,2.85
2022-11-25T08:29:17.016Z,3.08
2022-11-25T08:31:43.989Z,2.50
2022-11-25T08:34:21.645Z,2.35
2022-11-25T08:36:49.041Z,2.60
2022-11-25T08:42:06.190Z,2.80
2022-11-25T08:44:33.595Z,3.17
2022-11-25T08:47:00.802Z,2.25
2022-11-25T08:49:31.136Z,2.65
2022-11-25T08:52:00.530Z,2.45
2022-11-25T08:54:27.332Z,2.55
2022-11-25T08:56:54.119Z,2.45
2022-11-25T08:59:22.892Z,1.70
2022-11-25T09:01:49.880Z,2.50
2022-11-25T09:04:16.846Z,2.80
2022-11-25T09:06:43.666Z,2.55
2022-11-25T09:09:10.480Z,2.53
2022-11-25T09:11:37.449Z,2.88
2022-11-25T09:14:04.509Z,2.13
2022-11-25T09:16:31.524Z,1.80
2022-11-25T09:19:00.052Z,1.83
2022-11-25T09:21:28.193Z,2.25
2022-11-25T09:23:55.122Z,1.75
2022-11-25T09:26:31.284Z,1.58
2022-11-25T09:28:58.466Z,2.45
2022-11-25T09:31:25.447Z,1.48
2022-11-25T09:33:52.666Z,1.23
2022-11-25T09:36:20.811Z,1.60
2022-11-25T09:38:47.777Z,1.40
2022-11-25T09:41:43.803Z,1.27
2022-11-25T09:45:05.516Z,1.30
2022-11-25T09:47:57.569Z,2.67
2022-11-25T09:50:34.707Z,1.27
2022-11-25T09:53:13.758Z,1.52
2022-11-25T09:55:47.370Z,1.20
2022-11-25T09:58:32.316Z,0.95
2022-11-25T10:01:00.559Z,0.60
2022-11-25T10:03:41.571Z,0.57
2022-11-25T10:06:32.302Z,0.60
2022-11-25T10:09:04.327Z,0.40
2022-11-25T10:11:57.660Z,0.40
2022-11-25T10:14:45.360Z,0.75
2022-11-25T10:17:33.848Z,0.40
2022-11-25T10:20:13.159Z,0.60
2022-11-25T10:22:46.660Z,0.47
2022-11-25T10:25:24.372Z,0.82
2022-11-25T10:28:05.110Z,0.30
2022-11-25T10:30:42.183Z,0.40
2022-11-25T10:33:21.242Z,0.80
2022-11-25T10:36:00.645Z,0.60
2022-11-25T10:38:36.547Z,0.50
2022-11-25T10:41:04.404Z,0.50
2022-11-25T10:43:33.547Z,2.33
2022-11-25T10:46:43.334Z,12.50
2022-11-25T10:49:41.323Z,4.05
2022-11-25T10:52:12.283Z,12.65
2022-11-25T10:54:39.341Z,7.35
2022-11-25T10:57:20.320Z,2.58
2022-11-25T11:00:00.613Z,4.00
2022-11-25T11:02:30.133Z,3.05
2022-11-25T11:05:10.520Z,1.20
2022-11-25T11:07:38.874Z,1.15
2022-11-25T11:10:17.742Z,0.60
2022-11-25T11:12:58.473Z,1.00
2022-11-25T11:15:26.736Z,0.98
2022-11-25T11:17:54.766Z,0.57
2022-11-25T11:20:26.214Z,0.77
2022-11-25T11:23:08.830Z,0.68
2022-11-25T11:25:38.163Z,0.80
2022-11-25T11:28:34.815Z,1.20
2022-11-25T11:31:08.203Z,1.00
2022-11-25T11:33:35.183Z,0.80
2022-11-25T11:36:26.634Z,1.42
2022-11-25T11:38:57.295Z,0.65
2022-11-25T11:41:50.817Z,0.70
2022-11-25T11:44:29.757Z,0.50
2022-11-25T11:47:02.440Z,0.60
2022-11-25T11:49:38.234Z,0.60
2022-11-25T11:52:07.740Z,0.90
2022-11-25T11:54:36.580Z,0.70
2022-11-25T11:57:21.953Z,1.20
2022-11-25T11:59:53.512Z,0.68
2022-11-25T12:02:22.882Z,0.43
2022-11-25T12:05:11.900Z,3.45
2022-11-25T12:07:48.007Z,0.63
2022-11-25T12:10:14.874Z,0.60
2022-11-25T12:13:08.335Z,0.55
2022-11-25T12:15:48.423Z,0.63
2022-11-25T12:18:38.685Z,0.50
2022-11-25T12:21:12.769Z,0.75
2022-11-25T12:23:50.709Z,0.68
2022-11-25T12:26:43.376Z,0.60
2022-11-25T12:29:14.823Z,0.98
2022-11-25T12:31:53.596Z,0.93
2022-11-25T12:34:50.146Z,0.95
2022-11-25T12:37:28.580Z,0.75
2022-11-25T12:40:13.237Z,0.90
2022-11-25T12:42:42.102Z,0.38
2022-11-25T12:45:22.498Z,0.52
2022-11-25T12:47:49.604Z,0.90
2022-11-25T12:50:22.062Z,0.75
2022-11-25T12:53:07.227Z,0.85
2022-11-25T12:55:35.087Z,1.08
2022-11-25T12:58:26.456Z,0.65
2022-11-25T13:01:15.152Z,1.00
2022-11-25T13:04:03.655Z,0.90
2022-11-25T13:06:46.477Z,0.75
2022-11-25T13:09:38.943Z,0.88
2022-11-25T13:12:14.917Z,0.98
2022-11-25T13:14:51.125Z,1.05
2022-11-25T13:17:19.155Z,0.60
2022-11-25T13:19:46.301Z,0.75
2022-11-25T13:22:23.536Z,0.88
2022-11-25T13:24:50.623Z,0.63
2022-11-25T13:27:53.707Z,0.70
2022-11-25T13:30:32.775Z,1.25
2022-11-25T13:33:25.577Z,0.68
2022-11-25T13:35:56.616Z,0.70
2022-11-25T13:38:29.537Z,0.75
2022-11-25T13:41:22.243Z,0.73
2022-11-25T13:44:14.110Z,0.73
2022-11-25T13:46:52.794Z,0.90
2022-11-25T13:49:38.489Z,1.05
2022-11-25T13:52:11.442Z,1.40
2022-11-25T13:54:55.257Z,0.80
2022-11-25T13:57:32.201Z,0.63
2022-11-25T14:00:01.702Z,1.10
2022-11-25T14:02:28.608Z,1.10
2022-11-25T14:05:07.541Z,1.40
2022-11-25T14:07:56.272Z,1.50
2022-11-25T14:10:55.729Z,0.95
2022-11-25T14:13:50.288Z,1.20
2022-11-25T14:16:56.027Z,0.93
2022-11-25T14:19:54.046Z,1.75
2022-11-25T14:22:51.291Z,2.08
2022-11-25T14:25:51.974Z,1.70
2022-11-25T14:28:21.859Z,2.25
2022-11-25T14:30:54.782Z,1.75
2022-11-25T14:33:38.439Z,2.10
2022-11-25T14:36:13.969Z,2.05
2022-11-25T14:38:47.158Z,1.60
2022-11-25T14:41:20.024Z,1.50
2022-11-25T14:46:23.697Z,1.70
2022-11-25T14:48:55.094Z,4.68
2022-11-25T14:51:22.950Z,6.57
2022-11-25T14:53:51.430Z,3.08
2022-11-25T14:56:31.268Z,2.33
2022-11-25T14:58:59.298Z,2.65
2022-11-25T15:01:28.929Z,1.40
2022-11-25T15:04:13.820Z,1.90
2022-11-25T15:06:43.300Z,1.45
2022-11-25T15:09:29.892Z,1.10
2022-11-25T15:12:03.935Z,1.30
2022-11-25T15:14:34.159Z,1.40
2022-11-25T15:17:06.730Z,1.60
2022-11-25T15:19:36.167Z,1.20
2022-11-25T15:24:56.215Z,1.63
2022-11-25T15:27:28.527Z,2.28
2022-11-25T15:29:57.738Z,2.55
2022-11-25T15:32:37.550Z,3.22
2022-11-25T15:35:05.601Z,3.30
2022-11-25T15:37:32.502Z,4.05
2022-11-25T15:40:40.843Z,2.75
2022-11-25T15:43:25.485Z,2.83
2022-11-25T15:45:57.603Z,2.50
2022-11-25T15:48:29.798Z,3.50
2022-11-25T15:53:44.592Z,6.60
2022-11-25T15:56:15.706Z,8.48
2022-11-25T15:58:42.962Z,11.25
2022-11-25T16:01:15.941Z,10.80
2022-11-25T16:03:46.115Z,10.70
2022-11-25T16:06:24.736Z,8.20
2022-11-25T16:08:56.837Z,6.65
2022-11-25T16:14:15.792Z,6.93
2022-11-25T16:16:42.698Z,9.23
2022-11-25T16:19:09.634Z,11.30
2022-11-25T16:21:36.553Z,11.93
2022-11-25T16:24:06.580Z,5.97
2022-11-25T16:26:38.547Z,8.10
2022-11-25T16:29:19.187Z,6.28
2022-11-25T16:31:46.183Z,6.78
2022-11-25T16:34:20.992Z,4.43
2022-11-25T16:36:48.097Z,4.05
2022-11-25T16:39:14.946Z,5.00
2022-11-25T16:41:42.781Z,4.05
2022-11-25T16:44:22.613Z,4.65
2022-11-25T16:46:49.977Z,4.28
2022-11-25T16:49:19.043Z,5.10
2022-11-25T16:51:46.037Z,4.97
2022-11-25T16:54:13.004Z,4.53
2022-11-25T16:56:42.001Z,5.70
2022-11-25T16:59:40.992Z,4.90
2022-11-25T17:02:18.664Z,5.03
2022-11-25T17:04:46.400Z,5.00
2022-11-25T17:07:33.163Z,5.78
2022-11-25T17:10:00.798Z,6.55
2022-11-25T17:12:31.021Z,6.93
2022-11-25T17:15:00.163Z,6.15
2022-11-25T17:17:28.313Z,6.93
2022-11-25T17:19:55.614Z,6.20
2022-11-25T17:22:27.757Z,6.45
2022-11-25T17:27:29.607Z,6.80
2022-11-25T17:29:58.423Z,6.68
2022-11-25T17:32:26.064Z,7.15
2022-11-25T17:34:53.322Z,8.35
2022-11-25T17:37:25.726Z,8.07
2022-11-25T17:39:53.784Z,8.43
2022-11-25T17:42:33.633Z,7.93
2022-11-25T17:45:04.465Z,7.03
2022-11-25T17:47:31.279Z,8.85
2022-11-25T17:49:58.096Z,8.35
2022-11-25T17:52:25.002Z,8.27
2022-11-25T17:54:51.923Z,9.95
2022-11-25T17:57:21.640Z,8.52
2022-11-25T17:59:48.972Z,8.50
2022-11-25T18:02:18.728Z,7.95
2022-11-25T18:04:45.738Z,8.98
2022-11-25T18:07:12.711Z,18.10
2022-11-25T18:09:39.747Z,10.38
2022-11-25T18:12:13.161Z,11.38
2022-11-25T18:14:42.863Z,8.35
2022-11-25T18:17:15.949Z,7.72
2022-11-25T18:19:43.160Z,6.93
2022-11-25T18:22:18.123Z,7.15
2022-11-25T18:24:45.806Z,7.22
2022-11-25T18:27:32.115Z,5.75
2022-11-25T18:29:59.192Z,6.38
2022-11-25T18:32:26.054Z,6.35
2022-11-25T18:34:53.223Z,7.32
2022-11-25T18:37:20.138Z,7.50
2022-11-25T18:39:47.107Z,6.78
2022-11-25T18:42:26.652Z,6.90
2022-11-25T18:44:56.861Z,6.15
2022-11-25T18:47:24.019Z,6.18
2022-11-25T18:49:55.569Z,6.70
2022-11-25T18:52:24.554Z,6.32
2022-11-25T18:54:51.461Z,6.95
2022-11-25T18:57:18.423Z,6.18
2022-11-25T18:59:48.065Z,5.50
2022-11-25T19:02:23.154Z,5.15
2022-11-25T19:04:50.052Z,5.97
2022-11-25T19:07:16.881Z,5.13
2022-11-25T19:09:43.794Z,6.85
2022-11-25T19:12:16.583Z,5.88
2022-11-25T19:14:43.483Z,5.80
2022-11-25T19:17:19.905Z,4.97
2022-11-25T19:19:47.191Z,4.97
2022-11-25T19:22:15.775Z,4.78
2022-11-25T19:24:42.854Z,4.75
2022-11-25T19:27:23.562Z,4.60
2022-11-25T19:29:51.949Z,4.93
2022-11-25T19:32:21.562Z,5.63
2022-11-25T19:34:52.045Z,4.95
2022-11-25T19:37:21.363Z,6.15
2022-11-25T19:39:50.443Z,5.55
2022-11-25T19:42:17.418Z,5.32
2022-11-25T19:44:45.252Z,6.13
2022-11-25T19:47:17.564Z,6.35
2022-11-25T19:49:44.957Z,5.43
2022-11-25T19:52:21.423Z,6.60
2022-11-25T19:54:48.551Z,5.78
2022-11-25T19:57:23.454Z,5.32
2022-11-25T19:59:50.386Z,5.45
2022-11-25T20:02:21.323Z,6.30
2022-11-25T20:04:50.784Z,6.15
2022-11-25T20:07:19.698Z,6.78
2022-11-25T20:09:47.059Z,6.05
2022-11-25T20:12:20.571Z,6.13
2022-11-25T20:14:47.990Z,5.70
2022-11-25T20:17:37.516Z,5.78
2022-11-25T20:20:11.741Z,6.82
2022-11-25T20:22:42.281Z,5.50
2022-11-25T20:25:12.365Z,5.63
2022-11-25T20:27:39.173Z,5.60
2022-11-25T20:30:17.864Z,5.53
2022-11-25T20:32:45.037Z,5.53
2022-11-25T20:35:12.611Z,12.32
2022-11-25T20:37:51.019Z,11.70
2022-11-25T20:40:21.492Z,17.60
2022-11-25T20:42:50.075Z,18.00
2022-11-25T20:45:19.842Z,26.48
2022-11-25T20:47:52.894Z,13.23
2022-11-25T20:50:21.653Z,8.77
2022-11-25T20:52:50.342Z,7.72
2022-11-25T20:55:23.981Z,9.10
2022-11-25T20:57:52.557Z,8.95
2022-11-25T21:00:28.437Z,9.00
2022-11-25T21:02:57.388Z,9.80
2022-11-25T21:05:26.403Z,10.10
2022-11-25T21:07:55.299Z,11.70
2022-11-25T21:10:30.142Z,10.45
2022-11-25T21:12:57.325Z,10.63
2022-11-25T21:15:26.492Z,11.68
2022-11-25T21:17:53.613Z,10.68
2022-11-25T21:20:20.957Z,12.10
2022-11-25T21:22:52.925Z,10.65
2022-11-25T21:25:22.437Z,11.48
2022-11-25T21:27:51.068Z,12.18
2022-11-25T21:30:27.486Z,12.55
2022-11-25T21:32:56.329Z,10.60
2022-11-25T21:35:35.503Z,12.52
2022-11-25T21:38:05.534Z,10.80
2022-11-25T21:40:41.205Z,10.27
2022-11-25T21:43:26.369Z,9.63
2022-11-25T21:46:00.989Z,10.55
2022-11-25T21:48:28.369Z,8.35
2022-11-25T21:50:55.421Z,9.05
2022-11-25T21:53:22.222Z,10.15
2022-11-25T21:55:49.546Z,7.28
2022-11-25T21:58:19.579Z,8.30
2022-11-25T22:00:52.769Z,8.40
2022-11-25T22:03:21.447Z,9.18
2022-11-25T22:05:48.961Z,9.38
2022-11-25T22:08:16.401Z,8.20
2022-11-25T22:10:49.875Z,9.25
2022-11-25T22:13:29.449Z,9.23
2022-11-25T22:15:58.443Z,8.27
2022-11-25T22:18:31.974Z,8.38
2022-11-25T22:20:59.453Z,7.22
2022-11-25T22:23:26.561Z,7.15
2022-11-25T22:25:54.498Z,7.53
2022-11-25T22:28:27.664Z,7.45
2022-11-25T22:31:00.962Z,6.75
2022-11-25T22:33:33.654Z,7.75
2022-11-25T22:36:01.605Z,7.10
2022-11-25T22:38:29.535Z,6.80
2022-11-25T22:41:02.540Z,7.63
2022-11-25T22:43:34.629Z,7.20
2022-11-25T22:46:02.864Z,6.03
2022-11-25T22:48:38.131Z,6.95
2022-11-25T22:51:06.219Z,5.10
2022-11-25T22:53:33.045Z,6.00
2022-11-25T22:56:00.169Z,6.35
2022-11-25T22:58:28.160Z,5.70
2022-11-25T23:00:57.825Z,6.43
2022-11-25T23:03:30.062Z,5.93
2022-11-25T23:08:27.050Z,6.30
2022-11-25T23:10:55.001Z,7.50
2022-11-25T23:13:22.362Z,6.00
2022-11-25T23:15:53.559Z,6.70
2022-11-25T23:18:38.118Z,5.53
2022-11-25T23:21:25.562Z,5.15
2022-11-25T23:23:52.602Z,5.63
2022-11-25T23:26:19.603Z,5.13
2022-11-25T23:28:46.529Z,5.90
2022-11-25T23:31:15.062Z,4.75
2022-11-25T23:33:47.465Z,5.18
2022-11-25T23:36:27.530Z,5.78
2022-11-25T23:39:00.100Z,5.45
2022-11-25T23:41:30.139Z,5.10
2022-11-25T23:44:04.306Z,4.50
2022-11-25T23:46:35.040Z,4.57
2022-11-25T23:49:03.735Z,4.57
2022-11-25T23:51:31.184Z,4.90
2022-11-25T23:53:59.182Z,4.10
2022-11-25T23:56:27.269Z,3.90
2022-11-25T23:58:54.176Z,4.60
